Amur-2507 — XUEC6 — position and weather

sailwx.info

Track history (hours):
 
Tides and Currents Weather Stations Pressure Air Temp Water Temp Dewpoint Dewpoint Depression Visibility Wind Speed Wind Dir Waves Ship Positions

Amur-2507

Last reported at 2015-Mar-26 02:15 UTC. Time now 2015-Apr-01 16:32 UTC.
Position N 40°26' E 014°15'.

Length 115 m; draft 3 m.

Type: Cargo ship. MMSI: 515694000.

Date/timePositionNaut miles runAvg speedWind from/ knotsBaromVisibWave heightAir tempDewpointWater temp
2015-Mar-26 02:15N 40°26' E 014°15'4 5.8
2015-Mar-26 01:33N 40°30' E 014°12'5 5.3
2015-Mar-26 00:34N 40°35' E 014°11'6 6.1
2015-Mar-25 23:33N 40°38' E 014°17'7 6.6
2015-Mar-25 22:33N 40°43' E 014°24'2 2.0
2015-Mar-25 21:28N 40°44' E 014°26'0 0.0
2015-Mar-25 20:31N 40°44' E 014°26'0 0.0
2015-Mar-25 19:04N 40°44' E 014°26'0 0.0
2015-Mar-25 18:10N 40°44' E 014°26'0 0.0
2015-Mar-25 17:16N 40°44' E 014°26'0 0.0
2015-Mar-25 16:16N 40°44' E 014°26'0 0.0
2015-Mar-25 15:13N 40°44' E 014°26'0 0.0
2015-Mar-25 14:28N 40°44' E 014°26'0 0.0
2015-Mar-25 13:13N 40°44' E 014°26'0 0.0
2015-Mar-25 12:13N 40°44' E 014°26'0 0.0
2015-Mar-25 10:25N 40°44' E 014°26'0 0.0
2015-Mar-25 08:28N 40°44' E 014°26'0 0.0
2015-Mar-25 07:16N 40°44' E 014°26'0 0.1
2015-Mar-25 06:31N 40°44' E 014°26'0 0.1
2015-Mar-25 04:19N 40°44' E 014°26'0 0.0
2015-Mar-25 03:19N 40°44' E 014°26'0 0.0
2015-Mar-25 02:08N 40°44' E 014°26'0 0.0
2015-Mar-25 01:28N 40°44' E 014°26'0 0.0
2015-Mar-25 00:22N 40°44' E 014°26'0 0.0
2015-Mar-24 23:31N 40°44' E 014°26'0 0.1
2015-Mar-24 22:25N 40°44' E 014°26'0 0.0
2015-Mar-24 21:32N 40°44' E 014°26'0 0.1
2015-Mar-24 20:31N 40°44' E 014°26'0 0.1
2015-Mar-24 19:31N 40°44' E 014°26'0 0.1
2015-Mar-24 18:25N 40°44' E 014°26'0 0.0
2015-Mar-24 16:28N 40°44' E 014°26'0 0.1
2015-Mar-24 15:25N 40°44' E 014°26'0 0.1
2015-Mar-24 14:25N 40°44' E 014°26'1 1.4
2015-Mar-24 13:29N 40°45' E 014°27'0 0.0
2015-Mar-24 12:33N 40°45' E 014°27'0 0.0
2015-Mar-24 11:32N 40°45' E 014°27'0 0.0
2015-Mar-24 10:32N 40°45' E 014°27'0 0.0
2015-Mar-24 09:31N 40°45' E 014°27'0 0.0
2015-Mar-24 08:33N 40°45' E 014°27'0 0.0
2015-Mar-24 07:33N 40°45' E 014°27'0 0.0
2015-Mar-24 06:33N 40°45' E 014°27'0 0.0
2015-Mar-24 05:30N 40°45' E 014°27'0 0.0
2015-Mar-24 04:33N 40°45' E 014°27'0 0.0
2015-Mar-24 03:33N 40°45' E 014°27'0 0.0
2015-Mar-24 02:33N 40°45' E 014°27'0 0.0
2015-Mar-24 01:30N 40°45' E 014°27'0 0.0
2015-Mar-24 00:32N 40°45' E 014°27'0 0.0
2015-Mar-23 23:33N 40°45' E 014°27'0 0.0
2015-Mar-23 22:32N 40°45' E 014°27'0 0.0
2015-Mar-23 21:33N 40°45' E 014°27'0 0.0
2015-Mar-23 20:33N 40°45' E 014°27'0 0.0
2015-Mar-23 19:33N 40°45' E 014°27'0 0.0
2015-Mar-23 18:25N 40°45' E 014°27'0 0.0
2015-Mar-23 17:33N 40°45' E 014°27'0 0.0
2015-Mar-23 16:31N 40°45' E 014°27'0 0.0
2015-Mar-23 15:33N 40°45' E 014°27'0 0.0
2015-Mar-23 14:32N 40°45' E 014°27'0 0.0
2015-Mar-23 13:32N 40°45' E 014°27'0 0.0
2015-Mar-23 12:33N 40°45' E 014°27'0 0.0
2015-Mar-23 11:32N 40°45' E 014°27'0 0.0
2015-Mar-23 10:33N 40°45' E 014°27'0 0.0
2015-Mar-23 09:33N 40°45' E 014°27'0 0.0
2015-Mar-23 08:33N 40°45' E 014°27'0 0.0
2015-Mar-23 07:33N 40°45' E 014°27'0 0.0
2015-Mar-23 06:29N 40°45' E 014°27'2 1.7
2015-Mar-23 05:33N 40°44' E 014°26'6 5.8
2015-Mar-23 04:33N 40°40' E 014°20'7 6.5
2015-Mar-23 03:32N 40°36' E 014°13'6 6.3
2015-Mar-23 02:33N 40°30' E 014°12'  
Track history (hours):
 
Tides and Currents Weather Stations Pressure Air Temp Water Temp Dewpoint Dewpoint Depression Visibility Wind Speed Wind Dir Waves Ship Positions

Amur-2507

Last reported at 2015-Mar-26 02:15 UTC. Time now 2015-Apr-01 16:32 UTC.
Position N 40°26' E 014°15'.

Length 115 m; draft 3 m.

Type: Cargo ship. MMSI: 515694000.

Date/timePositionNaut miles runAvg speedWind from/ knotsBaromVisibWave heightAir tempDewpointWater temp
2015-Mar-26 02:15N 40°26' E 014°15'4 5.8
2015-Mar-26 01:33N 40°30' E 014°12'5 5.3
2015-Mar-26 00:34N 40°35' E 014°11'6 6.1
2015-Mar-25 23:33N 40°38' E 014°17'7 6.6
2015-Mar-25 22:33N 40°43' E 014°24'2 2.0
2015-Mar-25 21:28N 40°44' E 014°26'0 0.0
2015-Mar-25 20:31N 40°44' E 014°26'0 0.0
2015-Mar-25 19:04N 40°44' E 014°26'0 0.0
2015-Mar-25 18:10N 40°44' E 014°26'0 0.0
2015-Mar-25 17:16N 40°44' E 014°26'0 0.0
2015-Mar-25 16:16N 40°44' E 014°26'0 0.0
2015-Mar-25 15:13N 40°44' E 014°26'0 0.0
2015-Mar-25 14:28N 40°44' E 014°26'0 0.0
2015-Mar-25 13:13N 40°44' E 014°26'0 0.0
2015-Mar-25 12:13N 40°44' E 014°26'0 0.0
2015-Mar-25 10:25N 40°44' E 014°26'0 0.0
2015-Mar-25 08:28N 40°44' E 014°26'0 0.0
2015-Mar-25 07:16N 40°44' E 014°26'0 0.1
2015-Mar-25 06:31N 40°44' E 014°26'0 0.1
2015-Mar-25 04:19N 40°44' E 014°26'0 0.0
2015-Mar-25 03:19N 40°44' E 014°26'0 0.0
2015-Mar-25 02:08N 40°44' E 014°26'0 0.0
2015-Mar-25 01:28N 40°44' E 014°26'0 0.0
2015-Mar-25 00:22N 40°44' E 014°26'0 0.0
2015-Mar-24 23:31N 40°44' E 014°26'0 0.1
2015-Mar-24 22:25N 40°44' E 014°26'0 0.0
2015-Mar-24 21:32N 40°44' E 014°26'0 0.1
2015-Mar-24 20:31N 40°44' E 014°26'0 0.1
2015-Mar-24 19:31N 40°44' E 014°26'0 0.1
2015-Mar-24 18:25N 40°44' E 014°26'0 0.0
2015-Mar-24 16:28N 40°44' E 014°26'0 0.1
2015-Mar-24 15:25N 40°44' E 014°26'0 0.1
2015-Mar-24 14:25N 40°44' E 014°26'1 1.4
2015-Mar-24 13:29N 40°45' E 014°27'0 0.0
2015-Mar-24 12:33N 40°45' E 014°27'0 0.0
2015-Mar-24 11:32N 40°45' E 014°27'0 0.0
2015-Mar-24 10:32N 40°45' E 014°27'0 0.0
2015-Mar-24 09:31N 40°45' E 014°27'0 0.0
2015-Mar-24 08:33N 40°45' E 014°27'0 0.0
2015-Mar-24 07:33N 40°45' E 014°27'0 0.0
2015-Mar-24 06:33N 40°45' E 014°27'0 0.0
2015-Mar-24 05:30N 40°45' E 014°27'0 0.0
2015-Mar-24 04:33N 40°45' E 014°27'0 0.0
2015-Mar-24 03:33N 40°45' E 014°27'0 0.0
2015-Mar-24 02:33N 40°45' E 014°27'0 0.0
2015-Mar-24 01:30N 40°45' E 014°27'0 0.0
2015-Mar-24 00:32N 40°45' E 014°27'0 0.0
2015-Mar-23 23:33N 40°45' E 014°27'0 0.0
2015-Mar-23 22:32N 40°45' E 014°27'0 0.0
2015-Mar-23 21:33N 40°45' E 014°27'0 0.0
2015-Mar-23 20:33N 40°45' E 014°27'0 0.0
2015-Mar-23 19:33N 40°45' E 014°27'0 0.0
2015-Mar-23 18:25N 40°45' E 014°27'0 0.0
2015-Mar-23 17:33N 40°45' E 014°27'0 0.0
2015-Mar-23 16:31N 40°45' E 014°27'0 0.0
2015-Mar-23 15:33N 40°45' E 014°27'0 0.0
2015-Mar-23 14:32N 40°45' E 014°27'0 0.0
2015-Mar-23 13:32N 40°45' E 014°27'0 0.0
2015-Mar-23 12:33N 40°45' E 014°27'0 0.0
2015-Mar-23 11:32N 40°45' E 014°27'0 0.0
2015-Mar-23 10:33N 40°45' E 014°27'0 0.0
2015-Mar-23 09:33N 40°45' E 014°27'0 0.0
2015-Mar-23 08:33N 40°45' E 014°27'0 0.0
2015-Mar-23 07:33N 40°45' E 014°27'0 0.0
2015-Mar-23 06:29N 40°45' E 014°27'2 1.7
2015-Mar-23 05:33N 40°44' E 014°26'6 5.8
2015-Mar-23 04:33N 40°40' E 014°20'7 6.5
2015-Mar-23 03:32N 40°36' E 014°13'6 6.3
2015-Mar-23 02:33N 40°30' E 014°12'  

Dump ship's entire track history